| time (UTC) | temp C | wind direction | speed KPH | gust KPH | rain 1hr cm | rain 24hr cm | rain mn cm | humidity % | barometer mb |
| 20260906113109 | 20 | 0 | 0.0 | 0.0 | 0.00 | 1.22 | 0.00 | 93 | 1011.9 |
| 20260906111602 | 20 | 0 | 0.0 | 0.0 | 0.00 | 1.22 | 0.00 | 93 | 1011.6 |
| 20260906110100 | 20 | 0 | 0.0 | 0.0 | 0.00 | 1.22 | 0.00 | 93 | 1011.5 |
| 20260906104607 | 20 | 0 | 0.0 | 0.0 | 0.00 | 1.22 | 0.00 | 93 | 1011.3 |
| 20260906103104 | 20 | 0 | 0.0 | 0.0 | 0.00 | 1.22 | 0.00 | 93 | 1011.2 |
| 20260906101607 | 20 | 0 | 0.0 | 0.0 | 0.00 | 1.22 | 0.00 | 93 | 1011.0 |
| 20260906100105 | 20 | 0 | 0.0 | 0.0 | 0.00 | 1.22 | 0.00 | 93 | 1010.7 |
| 20260906094615 | 20 | 0 | 0.0 | 0.0 | 0.00 | 1.22 | 0.00 | 93 | 1010.7 |
| 20260906093131 | 20 | 0 | 0.0 | 0.0 | 0.00 | 1.22 | 0.00 | 93 | 1010.4 |
| 20260906091613 | 20 | 0 | 0.0 | 0.0 | 0.00 | 1.22 | 0.00 | 93 | 1010.4 |
| 20260906090105 | 20 | 0 | 0.0 | 0.0 | 0.00 | 1.22 | 0.00 | 93 | 1010.4 |
| 20260906084601 | 20 | 0 | 0.0 | 0.0 | 0.00 | 1.22 | 0.00 | 93 | 1010.5 |
| 20260906083101 | 20 | 0 | 0.0 | 0.0 | 0.00 | 1.22 | 0.00 | 93 | 1010.5 |
| 20260906081609 | 20 | 0 | 0.0 | 0.0 | 0.00 | 1.22 | 0.00 | 93 | 1010.6 |
| 20260906080110 | 21 | 0 | 0.0 | 0.0 | 0.00 | 1.22 | 0.00 | 93 | 1010.7 |
| 20260906074604 | 21 | 0 | 0.0 | 0.0 | 0.00 | 1.22 | 0.00 | 93 | 1010.9 |
| 20260906073101 | 21 | 0 | 0.0 | 0.0 | 0.00 | 1.22 | 0.00 | 93 | 1010.9 |
| 20260906071654 | 21 | 0 | 0.0 | 0.0 | 0.00 | 1.22 | 0.00 | 93 | 1011.0 |
| 20260906070104 | 21 | 0 | 0.0 | 0.0 | 0.00 | 1.22 | 0.00 | 93 | 1011.1 |
| 20260906064603 | 21 | 0 | 0.0 | 0.0 | 0.00 | 1.22 | 0.00 | 93 | 1011.3 |
| 20260906063105 | 21 | 0 | 0.0 | 0.0 | 0.00 | 1.22 | 0.00 | 93 | 1011.3 |
| 20260906061601 | 21 | 0 | 0.0 | 0.0 | 0.00 | 1.22 | 0.00 | 93 | 1011.3 |
| 20260906060105 | 21 | 0 | 0.0 | 0.0 | 0.00 | 1.22 | 0.00 | 93 | 1011.2 |
| 20260906054611 | 21 | 0 | 0.0 | 0.0 | 0.00 | 1.22 | 0.00 | 92 | 1011.2 |
| 20260906053101 | 21 | 0 | 0.0 | 0.0 | 0.00 | 1.22 | 0.00 | 92 | 1011.1 |
| 20260906051608 | 21 | 0 | 0.0 | 0.0 | 0.00 | 1.22 | 0.00 | 92 | 1011.3 |
| 20260906050111 | 21 | 0 | 0.0 | 0.0 | 0.00 | 1.22 | 0.00 | 92 | 1011.6 |
| 20260906044608 | 21 | 0 | 0.0 | 0.0 | 0.00 | 1.22 | 0.00 | 92 | 1011.9 |
| 20260906043104 | 21 | 0 | 0.0 | 0.0 | 0.00 | 1.22 | 0.00 | 92 | 1012.2 |
| 20260906041601 | 21 | 0 | 0.0 | 0.0 | 0.00 | 1.22 | 0.00 | 92 | 1012.2 |
| 20260906040107 | 21 | 0 | 0.0 | 0.0 | 0.00 | 1.22 | 0.00 | 92 | 1012.0 |
| 20260906034605 | 22 | 0 | 0.0 | 0.0 | 0.00 | 1.22 | 1.22 | 92 | 1012.2 |
| 20260906033100 | 22 | 0 | 0.0 | 0.0 | 0.00 | 1.22 | 1.22 | 92 | 1012.3 |
| 20260906031608 | 22 | 0 | 0.0 | 0.0 | 0.00 | 1.22 | 1.22 | 92 | 1012.4 |
| 20260906030104 | 22 | 0 | 0.0 | 3.2 | 0.03 | 1.22 | 1.22 | 92 | 1012.3 |
| 20260906024602 | 22 | 0 | 0.0 | 0.0 | 0.03 | 1.22 | 1.22 | 92 | 1012.4 |
| 20260906023104 | 22 | 0 | 0.0 | 0.0 | 0.03 | 1.22 | 1.22 | 92 | 1012.0 |
| 20260906021606 | 22 | 0 | 0.0 | 0.0 | 0.03 | 1.22 | 1.22 | 92 | 1011.6 |
| 20260906020106 | 22 | 0 | 0.0 | 0.0 | 0.00 | 1.19 | 1.19 | 92 | 1011.8 |
| 20260906014648 | 22 | 0 | 0.0 | 0.0 | 0.00 | 1.19 | 1.19 | 92 | 1012.1 |
| 20260906013105 | 22 | 0 | 0.0 | 0.0 | 0.13 | 1.19 | 1.19 | 92 | 1011.7 |
| 20260906011606 | 22 | 0 | 0.0 | 0.0 | 0.15 | 1.19 | 1.19 | 92 | 1011.8 |
| 20260906010105 | 22 | 0 | 0.0 | 0.0 | 0.18 | 1.19 | 1.19 | 92 | 1011.6 |
| 20260906004615 | 22 | 0 | 0.0 | 1.6 | 0.18 | 1.19 | 1.19 | 92 | 1011.1 |
| 20260906003115 | 22 | 0 | 0.0 | 4.8 | 0.05 | 1.07 | 1.07 | 91 | 1011.0 |
| 20260906001605 | 22 | 0 | 0.0 | 0.0 | 0.03 | 1.04 | 1.04 | 91 | 1011.6 |
| 20260906000104 | 22 | 0 | 0.0 | 4.8 | 0.00 | 1.02 | 1.02 | 90 | 1011.7 |
| 20260905234612 | 22 | 0 | 0.0 | 0.0 | 0.03 | 1.02 | 1.02 | 90 | 1010.5 |
| 20260905233103 | 22 | 0 | 0.0 | 0.0 | 0.05 | 1.02 | 1.02 | 89 | 1010.4 |
| 20260905231603 | 22 | 0 | 0.0 | 0.0 | 0.91 | 1.02 | 1.02 | 88 | 1011.1 |
| 20260905230110 | 22 | 0 | 0.0 | 0.0 | 1.02 | 1.02 | 1.02 | 86 | 1011.8 |
| 20260905224613 | 23 | 32 | 0.0 | 0.0 | 0.99 | 0.99 | 0.99 | 84 | 1011.3 |
| 20260905223104 | 24 | 0 | 0.0 | 6.4 | 0.97 | 0.97 | 0.97 | 79 | 1011.4 |
| 20260905221612 | 28 | 0 | 0.0 | 17.7 | 0.10 | 0.10 | 0.10 | 66 | 1011.3 |
| 20260905220108 | 32 | 0 | 0.0 | 0.0 | 0.00 | 0.00 | 0.00 | 69 | 1010.1 |
| 20260905214610 | 32 | 0 | 0.0 | 1.6 | 0.00 | 0.00 | 0.00 | 70 | 1008.7 |
| 20260905213106 | 32 | 0 | 0.0 | 1.6 | 0.00 | 0.00 | 0.00 | 68 | 1009.1 |
| 20260905211605 | 33 | 0 | 0.0 | 1.6 | 0.00 | 0.00 | 0.00 | 66 | 1009.4 |
| 20260905204603 | 33 | 0 | 0.0 | 0.0 | 0.00 | 0.00 | 0.00 | 62 | 1009.4 |
| 20260905203105 | 35 | 0 | 0.0 | 0.0 | 0.00 | 0.00 | 0.00 | 62 | 1009.2 |
| 20260905201623 | 35 | 0 | 0.0 | 1.6 | 0.00 | 0.00 | 0.00 | 61 | 1009.3 |
| 20260905200104 | 35 | 0 | 0.0 | 1.6 | 0.00 | 0.00 | 0.00 | 57 | 1009.6 |
| 20260905194603 | 36 | 0 | 0.0 | 1.6 | 0.00 | 0.00 | 0.00 | 54 | 1009.6 |
| 20260905193114 | 36 | 268 | 0.0 | 1.6 | 0.00 | 0.00 | 0.00 | 55 | 1009.8 |
| 20260905191601 | 36 | 0 | 0.0 | 6.4 | 0.00 | 0.00 | 0.00 | 56 | 1010.0 |
| 20260905190108 | 36 | 0 | 0.0 | 1.6 | 0.00 | 0.00 | 0.00 | 56 | 1010.4 |
| 20260905184606 | 36 | 0 | 0.0 | 8.0 | 0.00 | 0.00 | 0.00 | 58 | 1010.8 |
| 20260905183107 | 35 | 0 | 0.0 | 1.6 | 0.00 | 0.00 | 0.00 | 58 | 1010.9 |
| 20260905181611 | 35 | 0 | 0.0 | 4.8 | 0.00 | 0.00 | 0.00 | 58 | 1011.1 |
| 20260905180104 | 35 | 0 | 0.0 | 0.0 | 0.00 | 0.00 | 0.00 | 61 | 1011.4 |
| 20260905174628 | 35 | 0 | 0.0 | 1.6 | 0.00 | 0.00 | 0.00 | 56 | 1011.8 |
| 20260905173105 | 35 | 0 | 0.0 | 4.8 | 0.00 | 0.00 | 0.00 | 58 | 1012.1 |
| 20260905171604 | 34 | 0 | 0.0 | 8.0 | 0.00 | 0.00 | 0.00 | 59 | 1012.0 |
| 20260905170107 | 35 | 0 | 0.0 | 12.9 | 0.00 | 0.00 | 0.00 | 60 | 1012.2 |
| 20260905164605 | 33 | 0 | 0.0 | 1.6 | 0.00 | 0.00 | 0.00 | 64 | 1012.6 |
| 20260905163108 | 33 | 0 | 0.0 | 8.0 | 0.00 | 0.00 | 0.00 | 69 | 1012.9 |
| 20260905161606 | 33 | 0 | 0.0 | 1.6 | 0.00 | 0.00 | 0.00 | 67 | 1013.0 |
| 20260905160109 | 32 | 0 | 0.0 | 1.6 | 0.00 | 0.00 | 0.00 | 66 | 1013.1 |
| 20260905154619 | 32 | 0 | 0.0 | 4.8 | 0.00 | 0.00 | 0.00 | 67 | 1013.3 |
| 20260905153104 | 32 | 0 | 0.0 | 1.6 | 0.00 | 0.00 | 0.00 | 70 | 1013.5 |
| 20260905151607 | 31 | 0 | 0.0 | 6.4 | 0.00 | 0.00 | 0.00 | 72 | 1013.5 |
| 20260905150106 | 30 | 0 | 0.0 | 3.2 | 0.00 | 0.00 | 0.00 | 75 | 1013.7 |
| 20260905144609 | 30 | 0 | 0.0 | 4.8 | 0.00 | 0.00 | 0.00 | 77 | 1013.8 |
| 20260905143105 | 29 | 0 | 0.0 | 4.8 | 0.00 | 0.00 | 0.00 | 79 | 1013.8 |
| 20260905141606 | 28 | 0 | 0.0 | 6.4 | 0.00 | 0.00 | 0.00 | 81 | 1013.7 |
| 20260905140109 | 27 | 9 | 0.0 | 8.0 | 0.00 | 0.00 | 0.00 | 88 | 1013.8 |
| 20260905134604 | 26 | 0 | 0.0 | 6.4 | 0.00 | 0.00 | 0.00 | 88 | 1013.9 |
| 20260905133103 | 26 | 0 | 0.0 | 1.6 | 0.00 | 0.00 | 0.00 | 91 | 1014.0 |
| 20260905131609 | 25 | 0 | 0.0 | 1.6 | 0.00 | 0.00 | 0.00 | 92 | 1014.1 |
| 20260905130104 | 25 | 0 | 0.0 | 1.6 | 0.00 | 0.00 | 0.00 | 93 | 1014.2 |
| 20260905124603 | 25 | 0 | 0.0 | 6.4 | 0.00 | 0.00 | 0.00 | 93 | 1014.2 |
| 20260905123102 | 25 | 0 | 0.0 | 0.0 | 0.00 | 0.00 | 0.00 | 93 | 1014.1 |
| 20260905121605 | 24 | 0 | 0.0 | 1.6 | 0.00 | 0.00 | 0.00 | 93 | 1014.0 |
| 20260905120105 | 24 | 0 | 0.0 | 0.0 | 0.00 | 0.00 | 0.00 | 94 | 1013.8 |
| 20260905114606 | 24 | 0 | 0.0 | 1.6 | 0.00 | 0.00 | 0.00 | 93 | 1013.7 |